x

Grays Reef - 40 Nm Southeast Of Savannah, Ga (41008) Wave Buoy

4:50am - Wed 30th Jul 2014 All times are EDT. -4 hours from GMT.

  • Sig Wave height 1.3ft
  • Swell Direction
  • Peak Period 8s
  • Average Period 5s
  • Wind
    7mph, 9mph gusts
  • Sea Temp 85°f
  • Air Temp 83°f
  • Sea Pressure 1013.5mb
  • Grays Reef - 40 Nm Southeast Of Savannah, Ga
  • Grays Reef - 40 Nm Southeast Of Savannah, Ga

More Historic Weather Station data

Upgrade to MSW Pro to gain access to the past 30 days of data for over 8000 Wavebouys and Weather Stations around the globe.

Join Pro

Comparision Forecast

View Surf forecast
   
Wed 07/30 4:50am 1.3ft 8s 5s 7 9 mph 1013.5mb 85f 83f
3:50am 1.3ft 8s 5s 7 9 mph 1013.4mb 85f 83f
2:50am 1.6ft 9s 5s 4 7 mph 1013.4mb 85f 83f
1:50am 1.6ft 9s 5s 7
mph
1013.7mb 85f 83f
12:50am 1.6ft 9s 5s 4 7 mph 1013.7mb 85f 83f
Tue 07/29 11:50pm 1.6ft 5s 5s 7
mph
1013.8mb 85f 83f
10:50pm 2ft 5s 4s 7 9 mph 1013.8mb 85f 83f
9:50pm 2ft 5s 4s 7 9 mph 1013.7mb 85f 83f
8:50pm 2ft 5s 4s 11 13 mph 1013.1mb 86f 83f
7:50pm 1.6ft 4s 4s 7
mph
1012.7mb 86f 84f
6:50pm 1.6ft 4s 4s 7 9 mph 1012.2mb 86f 84f
5:50pm 1.6ft 4s 4s 7 9 mph 1012.2mb 87f 85f
4:50pm 1.6ft 4s 4s 7 9 mph 1012mb 87f 84f
3:50pm 1.6ft 9s 4s 7 9 mph 1012.4mb 87f 83f
2:50pm 1.6ft 4s 4s 7 9 mph 1012.6mb 87f 82f
1:50pm 1.6ft 4s 4s 7 9 mph 1012.9mb 87f 82f
12:50pm 1.6ft 4s 4s 2
mph
1013mb 86f 83f
11:50am 1.6ft 4s 4s 4
mph
1013.3mb 85f 83f
10:50am 2ft 4s 4s 7
mph
1013.1mb 85f 83f
9:50am 2ft 4s 4s 9 11 mph 1012.4mb 85f 81f
8:50am 2ft 3s 4s 13 16 mph 1012.2mb 85f 81f
7:50am 2ft 4s 4s 13 16 mph 1011.5mb 85f 82f
6:50am 2.5ft 4s 4s 13 18 mph 1011.4mb 85f 81f
5:50am 2.5ft 4s 4s 13 18 mph 1011.2mb 85f 82f
4:50am 3ft 4s 4s 16 18 mph 1010.9mb 85f 82f
3:50am 3ft 5s 4s 20 22 mph 1010.4mb 85f 83f
2:50am 3ft 5s 4s 18 22 mph 1010.6mb 85f 84f
1:50am 3ft 5s 4s 18 22 mph 1010.8mb 85f 85f
12:50am 3.5ft 5s 4s 20 22 mph 1011.1mb 85f 85f
Mon 07/28 11:50pm 3.5ft 4s 4s 22 27 mph 1011.5mb 85f 86f
10:50pm 2.5ft 4s 3s 22 27 mph 1011.4mb 85f 87f
9:50pm 2.5ft 4s 4s 18 22 mph 1010.8mb 85f 87f
8:50pm 2.5ft 3s 4s 11 13 mph 1010.3mb 85f 87f
7:50pm 2.5ft 3s 4s 13 16 mph 1010.4mb 85f 87f
6:50pm 2.5ft 3s 4s 16 18 mph 1010.1mb 85f 87f
5:50pm 2ft 9s 4s 16 18 mph 1010.4mb 86f 87f
4:50pm 2ft 9s 4s 13 16 mph 1010.9mb 86f 87f
3:50pm 2ft 9s 4s 11 13 mph 1011.4mb 86f 87f
2:50pm 2ft 9s 4s 13 16 mph 1012.1mb 85f 87f
1:50pm 2ft 9s 4s 13 16 mph 1012.8mb 85f 86f
12:50pm 2.5ft 10s 4s 13 16 mph 1013.3mb 85f 85f
11:50am 2.5ft 4s 4s 13 16 mph 1013.9mb 85f 85f
10:50am 3ft 4s 4s 16 18 mph 1013.8mb 84f 84f
9:50am 3.5ft 5s 4s 18 20 mph 1013.7mb 84f 83f
8:50am 3.5ft 4s 4s 20 25 mph 1013.8mb 84f 83f
7:50am 3.5ft 4s 4s 18 22 mph 1013.9mb 84f 83f
6:50am 3.5ft 4s 4s 18 22 mph 1013.8mb 84f 83f
5:50am 3.5ft 4s 4s 18 22 mph 1013.5mb 84f 83f
4:50am 4ft 4s 4s 20 25 mph 1013.4mb 84f 84f
2:50am 3.5ft 4s 4s 22 25 mph 1013.5mb 85f 84f
1:50am 2.5ft 4s 4s 20 25 mph 1013.2mb 85f 85f
12:50am 2.5ft 4s 4s 16 18 mph 1013.7mb 85f 86f
Sun 07/27 11:50pm 2.5ft 4s 4s 16 18 mph 1014.2mb 85f 85f
9:50pm 2.5ft 4s 4s 20 22 mph 1014.5mb 85f 85f
8:50pm 2.5ft 4s 3s 18 22 mph 1014.1mb 85f 86f
7:50pm 2.5ft 3s 3s 18 20 mph 1013.6mb 85f 86f
6:50pm 2ft 3s 4s 16 18 mph 1013.8mb 85f 86f
5:50pm 2ft 5s 4s 16 18 mph 1013.9mb 85f 86f
4:50pm 1.6ft 5s 4s 13 16 mph 1014.4mb 85f 86f
3:50pm 1.6ft 4s 4s 13 16 mph 1015mb 86f 85f
2:50pm 1.6ft 4s 4s 11 13 mph 1015.5mb 85f 86f
1:50pm 1.6ft 5s 4s 11 13 mph 1016.2mb 85f 85f
12:50pm 1.6ft 5s 4s 11 13 mph 1016.7mb 85f 84f
11:50am 2ft 4s 4s 11 13 mph 1016.5mb 85f 83f
10:50am 2ft 4s 4s 11
mph
1016.8mb 84f 82f
9:50am 2ft 4s 4s 11 13 mph 1017.1mb 84f 82f
8:50am 2.5ft 4s 4s 9 11 mph 1016.8mb 84f 82f
7:50am 2.5ft 4s 4s 13 16 mph 1016.3mb 84f 81f
6:50am 2.5ft 4s 4s 16 18 mph 1015.8mb 84f 82f
5:50am 2.5ft 3s 4s 16 18 mph 1015.4mb 84f 82f
4:50am 2.5ft 4s 4s 16 18 mph 1015.3mb 84f 82f
3:50am 2.5ft 4s 4s 18 20 mph 1015.2mb 84f 83f
2:50am 2.5ft 5s 4s 16 18 mph 1015.5mb 85f 84f
1:50am 2.5ft 5s 4s 16 20 mph 1015.7mb 85f 85f
12:50am 3ft 4s 4s 16 20 mph 1016mb 85f 85f
Sat 07/26 11:50pm 2.5ft 4s 4s 20 22 mph 1016.3mb 84f 84f
10:50pm 2.5ft 4s 4s 20 25 mph 1016.7mb 85f 84f
9:50pm 2.5ft 4s 4s 18 20 mph 1016.2mb 85f 84f
8:50pm 2.5ft 4s 4s 13 16 mph 1015.3mb 85f 84f
7:50pm 2.5ft 3s 3s 16 18 mph 1014.9mb 85f 84f
6:50pm 2ft 7s 4s 18 20 mph 1015mb 85f 84f
5:50pm 2ft 8s 4s 13 18 mph 1015.5mb 85f 85f
4:50pm 2ft 4s 4s 11 13 mph 1015.6mb 85f 83f
3:50pm 2ft 7s 4s 11 18 mph 1016.5mb 85f 80f
2:50pm 2ft 8s 4s 16 18 mph 1016.6mb 85f 83f
1:50pm 2ft 8s 4s 11 16 mph 1017.4mb 85f 84f
12:50pm 2ft 8s 4s 11 13 mph 1017.6mb 85f 83f
11:50am 2ft 5s 4s 11 13 mph 1017.8mb 85f 83f
10:50am 2.5ft 5s 4s 13 16 mph 1017.6mb 84f 82f